createdAt,value
2023-02-04T00:00:31.033Z,15.60
2023-02-04T00:03:19.115Z,16.40
2023-02-04T00:05:47.305Z,17.10
2023-02-04T00:08:15.263Z,20.60
2023-02-04T00:10:43.186Z,19.00
2023-02-04T00:13:11.150Z,19.10
2023-02-04T00:15:39.260Z,17.50
2023-02-04T00:18:07.335Z,19.30
2023-02-04T00:20:35.236Z,19.60
2023-02-04T00:23:03.077Z,21.40
2023-02-04T00:25:31.041Z,18.10
2023-02-04T00:27:58.919Z,21.50
2023-02-04T00:30:26.867Z,16.70
2023-02-04T00:32:56.599Z,16.80
2023-02-04T00:35:24.867Z,22.80
2023-02-04T00:37:53.531Z,17.00
2023-02-04T00:40:21.385Z,17.10
2023-02-04T00:42:49.321Z,19.40
2023-02-04T00:45:17.270Z,18.10
2023-02-04T00:47:45.238Z,21.10
2023-02-04T00:50:13.845Z,20.40
2023-02-04T00:52:41.705Z,20.60
2023-02-04T00:55:12.018Z,16.80
2023-02-04T00:57:39.776Z,14.30
2023-02-04T01:00:08.644Z,14.90
2023-02-04T01:02:36.658Z,15.50
2023-02-04T01:05:05.098Z,13.80
2023-02-04T01:07:33.088Z,15.20
2023-02-04T01:10:01.123Z,13.60
2023-02-04T01:12:29.058Z,18.30
2023-02-04T01:14:57.253Z,16.00
2023-02-04T01:17:25.439Z,15.90
2023-02-04T01:19:53.780Z,14.40
2023-02-04T01:22:21.803Z,15.50
2023-02-04T01:24:50.757Z,14.10
2023-02-04T01:27:18.690Z,22.10
2023-02-04T01:29:46.638Z,23.10
2023-02-04T01:32:14.447Z,21.50
2023-02-04T01:34:42.319Z,19.30
2023-02-04T01:37:10.122Z,19.50
2023-02-04T01:39:38.270Z,17.30
2023-02-04T01:42:06.559Z,16.90
2023-02-04T01:44:34.566Z,16.50
2023-02-04T01:47:02.743Z,18.90
2023-02-04T01:49:31.077Z,19.80
2023-02-04T01:51:59.140Z,17.20
2023-02-04T01:54:27.480Z,16.50
2023-02-04T01:56:55.653Z,17.50
2023-02-04T01:59:24.286Z,18.90
2023-02-04T02:01:53.348Z,21.20
2023-02-04T02:04:35.258Z,18.70
2023-02-04T02:07:06.438Z,20.00
2023-02-04T02:09:34.700Z,19.80
2023-02-04T02:12:04.325Z,20.80
2023-02-04T02:14:32.316Z,18.60
2023-02-04T02:17:00.362Z,18.60
2023-02-04T02:19:36.114Z,21.20
2023-02-04T02:22:29.267Z,20.90
2023-02-04T02:24:57.253Z,18.40
2023-02-04T02:27:25.232Z,17.00
2023-02-04T02:29:53.200Z,17.40
2023-02-04T02:32:21.147Z,19.60
2023-02-04T02:34:49.039Z,17.90
2023-02-04T02:37:17.083Z,19.60
2023-02-04T02:39:46.228Z,20.90
2023-02-04T02:42:17.133Z,23.40
2023-02-04T02:44:47.084Z,22.60
2023-02-04T02:47:21.585Z,24.60
2023-02-04T02:49:51.483Z,20.70
2023-02-04T02:52:20.329Z,24.00
2023-02-04T02:54:48.807Z,25.80
2023-02-04T02:57:20.470Z,21.80
2023-02-04T02:59:48.896Z,23.20
2023-02-04T03:02:22.006Z,21.10
2023-02-04T03:04:55.654Z,19.60
2023-02-04T03:07:24.033Z,24.10
2023-02-04T03:09:53.684Z,19.60
2023-02-04T03:12:21.773Z,19.40
2023-02-04T03:14:49.954Z,17.20
2023-02-04T03:17:18.126Z,18.90
2023-02-04T03:19:46.086Z,16.10
2023-02-04T03:22:14.105Z,17.20
2023-02-04T03:24:42.027Z,18.00
2023-02-04T03:27:09.978Z,19.70
2023-02-04T03:29:43.898Z,17.00
2023-02-04T03:34:40.109Z,17.30
2023-02-04T03:37:07.979Z,15.00
2023-02-04T03:39:36.269Z,15.70
2023-02-04T03:42:04.205Z,17.10
2023-02-04T03:44:32.158Z,14.40
2023-02-04T03:47:00.237Z,15.80
2023-02-04T03:49:28.570Z,14.90
2023-02-04T03:51:56.508Z,13.90
2023-02-04T03:54:24.648Z,12.60
2023-02-04T03:56:52.563Z,12.50
2023-02-04T03:59:20.439Z,12.40
2023-02-04T04:01:48.483Z,15.80
2023-02-04T04:04:16.460Z,15.10
2023-02-04T04:06:44.516Z,14.10
2023-02-04T04:09:13.797Z,14.20
2023-02-04T04:11:41.664Z,13.40
2023-02-04T04:14:09.623Z,18.50
2023-02-04T04:16:37.469Z,14.90
2023-02-04T04:19:05.652Z,18.10
2023-02-04T04:21:33.526Z,15.40
2023-02-04T04:24:01.521Z,13.60
2023-02-04T04:26:29.420Z,17.60
2023-02-04T04:28:57.346Z,16.80
2023-02-04T04:31:25.422Z,20.60
2023-02-04T04:33:53.360Z,15.50
2023-02-04T04:36:21.196Z,21.30
2023-02-04T04:38:49.107Z,26.00
2023-02-04T04:41:17.224Z,30.60
2023-02-04T04:43:45.236Z,27.50
2023-02-04T04:46:13.078Z,35.60
2023-02-04T04:48:41.001Z,33.40
2023-02-04T04:51:09.288Z,42.60
2023-02-04T04:53:37.513Z,41.20
2023-02-04T04:56:05.569Z,36.80
2023-02-04T04:58:33.481Z,41.60
2023-02-04T05:01:01.443Z,41.80
2023-02-04T05:03:29.530Z,38.00
2023-02-04T05:05:57.424Z,42.10
2023-02-04T05:08:25.235Z,40.40
2023-02-04T05:10:53.053Z,38.10
2023-02-04T05:13:20.992Z,36.10
2023-02-04T05:15:48.870Z,51.60
2023-02-04T05:18:16.794Z,40.00
2023-02-04T05:20:44.667Z,38.80
2023-02-04T05:23:12.636Z,47.50
2023-02-04T05:25:40.743Z,47.90
2023-02-04T05:28:08.720Z,46.90
2023-02-04T05:30:36.684Z,42.00
2023-02-04T05:33:04.577Z,43.20
2023-02-04T05:35:32.436Z,44.80
2023-02-04T05:38:00.408Z,47.30
2023-02-04T05:40:28.339Z,48.00
2023-02-04T05:42:56.323Z,46.80
2023-02-04T05:45:24.189Z,46.00
2023-02-04T05:47:52.607Z,49.20
2023-02-04T05:50:20.570Z,51.70
2023-02-04T05:52:48.635Z,44.00
2023-02-04T05:55:16.490Z,46.00
2023-02-04T05:57:44.498Z,44.50
2023-02-04T06:00:12.988Z,49.10
2023-02-04T06:02:40.929Z,49.40
2023-02-04T06:05:09.143Z,51.20
2023-02-04T06:07:37.166Z,49.60
2023-02-04T06:10:05.326Z,46.30
2023-02-04T06:12:33.262Z,50.40
2023-02-04T06:15:01.092Z,52.50
2023-02-04T06:17:29.058Z,55.60
2023-02-04T06:19:56.937Z,50.30
2023-02-04T06:22:26.155Z,63.30
2023-02-04T06:24:54.073Z,59.30
2023-02-04T06:27:25.899Z,54.40
2023-02-04T06:29:54.188Z,48.00
2023-02-04T06:32:23.455Z,52.50
2023-02-04T06:34:51.830Z,54.40
2023-02-04T06:37:20.469Z,44.60
2023-02-04T06:39:48.387Z,46.00
2023-02-04T06:42:16.653Z,46.40
2023-02-04T06:44:44.625Z,39.40
2023-02-04T06:47:12.500Z,43.10
2023-02-04T06:49:40.335Z,40.80
2023-02-04T06:52:08.275Z,40.40
2023-02-04T06:54:36.243Z,44.40
2023-02-04T06:57:07.425Z,40.00
2023-02-04T06:59:36.515Z,44.00
2023-02-04T07:02:05.828Z,39.30
2023-02-04T07:04:35.378Z,40.40
2023-02-04T07:07:03.404Z,42.70
2023-02-04T07:09:31.329Z,39.70
2023-02-04T07:11:59.438Z,45.30
2023-02-04T07:14:27.210Z,45.80
2023-02-04T07:16:55.076Z,39.90
2023-02-04T07:19:22.909Z,45.40
2023-02-04T07:21:54.055Z,36.60
2023-02-04T07:24:22.282Z,40.00
2023-02-04T07:26:50.253Z,43.10
2023-02-04T07:29:25.046Z,44.70
2023-02-04T07:31:54.142Z,40.20
2023-02-04T07:34:22.579Z,52.90
2023-02-04T07:36:50.524Z,41.20
2023-02-04T07:39:18.499Z,49.40
2023-02-04T07:41:46.413Z,43.30
2023-02-04T07:44:14.242Z,45.30
2023-02-04T07:46:42.261Z,44.80
2023-02-04T07:49:10.137Z,53.70
2023-02-04T07:51:38.029Z,50.50
2023-02-04T07:54:05.880Z,49.40
2023-02-04T07:56:33.902Z,45.90
2023-02-04T07:59:01.811Z,50.90
2023-02-04T08:01:29.770Z,50.60
2023-02-04T08:03:57.740Z,46.40
2023-02-04T08:06:25.560Z,50.10
2023-02-04T08:08:53.398Z,44.80
2023-02-04T08:11:21.298Z,42.30
2023-02-04T08:13:49.284Z,42.10
2023-02-04T08:16:17.349Z,48.90
2023-02-04T08:18:45.305Z,42.50
2023-02-04T08:21:13.193Z,46.20
2023-02-04T08:23:41.915Z,43.40
2023-02-04T08:26:11.486Z,48.60
2023-02-04T08:28:39.447Z,50.10
2023-02-04T08:31:11.840Z,48.10
2023-02-04T08:33:40.283Z,44.90
2023-02-04T08:36:08.305Z,49.20
2023-02-04T08:38:36.238Z,48.40
2023-02-04T08:41:04.482Z,47.00
2023-02-04T08:43:32.388Z,47.30
2023-02-04T08:46:00.277Z,56.20
2023-02-04T08:48:28.218Z,55.10
2023-02-04T08:50:56.089Z,52.60
2023-02-04T08:53:23.965Z,58.60
2023-02-04T08:55:51.812Z,50.00
2023-02-04T08:58:19.802Z,48.80
2023-02-04T09:00:50.169Z,48.60
2023-02-04T09:03:18.044Z,47.10
2023-02-04T09:05:46.020Z,49.10
2023-02-04T09:08:15.726Z,51.20
2023-02-04T09:10:43.647Z,41.30
2023-02-04T09:13:11.863Z,48.60
2023-02-04T09:15:40.068Z,51.50
2023-02-04T09:18:16.382Z,53.80
2023-02-04T09:20:45.425Z,60.00
2023-02-04T09:23:13.486Z,55.90
2023-02-04T09:25:43.412Z,58.40
2023-02-04T09:28:12.809Z,62.00
2023-02-04T09:30:42.714Z,57.80
2023-02-04T09:33:12.205Z,61.70
2023-02-04T09:35:41.032Z,58.30
2023-02-04T09:38:09.096Z,64.50
2023-02-04T09:40:42.847Z,65.60
2023-02-04T09:43:22.036Z,63.00
2023-02-04T09:45:50.036Z,56.00
2023-02-04T09:48:18.624Z,54.10
2023-02-04T09:50:46.531Z,53.10
2023-02-04T09:53:19.350Z,57.80
2023-02-04T09:55:48.901Z,51.00
2023-02-04T09:58:19.334Z,55.50
2023-02-04T10:01:09.087Z,61.20
2023-02-04T10:03:37.063Z,60.90
2023-02-04T10:06:05.329Z,63.90
2023-02-04T10:08:34.497Z,57.70
2023-02-04T10:11:02.606Z,49.40
2023-02-04T10:13:35.023Z,46.90
2023-02-04T10:16:10.469Z,61.80
2023-02-04T10:18:39.117Z,63.90
2023-02-04T10:21:15.360Z,60.10
2023-02-04T10:23:47.119Z,64.60
2023-02-04T10:26:16.408Z,64.40
2023-02-04T10:28:46.009Z,61.70
2023-02-04T10:31:30.722Z,70.20
2023-02-04T10:34:12.284Z,69.50
2023-02-04T10:36:43.310Z,72.00
2023-02-04T10:39:14.336Z,64.20
2023-02-04T10:41:56.354Z,59.00
2023-02-04T10:44:28.618Z,68.20
2023-02-04T10:47:09.616Z,60.10
2023-02-04T10:49:39.021Z,66.70
2023-02-04T10:52:17.996Z,65.50
2023-02-04T10:54:45.992Z,69.40
2023-02-04T10:57:22.374Z,59.50
2023-02-04T10:59:52.353Z,61.40
2023-02-04T11:02:43.281Z,61.30
2023-02-04T11:05:14.513Z,62.70
2023-02-04T11:07:42.867Z,61.00
2023-02-04T11:10:14.253Z,61.00
2023-02-04T11:13:01.846Z,72.90
2023-02-04T11:16:08.628Z,69.80
2023-02-04T11:18:53.062Z,75.70
2023-02-04T11:21:40.854Z,69.50
2023-02-04T11:24:11.854Z,64.20
2023-02-04T11:27:18.549Z,64.80
2023-02-04T11:29:48.024Z,64.80
2023-02-04T11:32:32.759Z,65.60
2023-02-04T11:35:22.799Z,58.90
2023-02-04T11:37:50.974Z,62.30
2023-02-04T11:40:38.065Z,60.30
2023-02-04T11:43:16.215Z,60.10
2023-02-04T11:45:44.710Z,58.90
2023-02-04T11:48:16.394Z,62.00
2023-02-04T11:50:55.641Z,61.90
2023-02-04T11:53:32.062Z,59.00
2023-02-04T11:56:00.549Z,58.90
2023-02-04T11:58:31.133Z,57.30
2023-02-04T12:00:59.788Z,61.80
2023-02-04T12:03:30.800Z,59.70
2023-02-04T12:05:59.309Z,56.10
2023-02-04T12:08:33.270Z,56.10
2023-02-04T12:13:32.145Z,58.50
2023-02-04T12:16:00.117Z,55.90
2023-02-04T12:18:29.126Z,68.70
2023-02-04T12:20:57.785Z,71.60
2023-02-04T12:23:27.900Z,73.70
2023-02-04T12:25:56.654Z,71.50
2023-02-04T12:28:24.714Z,71.30
2023-02-04T12:30:52.613Z,73.80
2023-02-04T12:33:20.838Z,68.40
2023-02-04T12:35:49.223Z,68.20
2023-02-04T12:38:17.730Z,77.20
2023-02-04T12:40:46.343Z,70.30
2023-02-04T12:43:14.483Z,67.30
2023-02-04T12:45:48.543Z,67.40
2023-02-04T12:48:16.591Z,55.00
2023-02-04T12:50:44.576Z,63.70
2023-02-04T12:53:12.498Z,44.60
2023-02-04T12:55:40.411Z,35.10
2023-02-04T12:58:08.348Z,37.10
2023-02-04T13:00:36.303Z,37.70
2023-02-04T13:03:05.336Z,36.50
2023-02-04T13:05:34.237Z,31.50
2023-02-04T13:08:02.766Z,33.90
2023-02-04T13:10:30.614Z,23.30
2023-02-04T13:13:01.903Z,25.20
2023-02-04T13:15:31.213Z,14.10
2023-02-04T13:17:59.383Z,15.70
2023-02-04T13:20:27.231Z,13.70
2023-02-04T13:22:55.255Z,11.30
2023-02-04T13:25:23.477Z,9.70
2023-02-04T13:27:51.441Z,9.90
2023-02-04T13:30:19.459Z,11.70
2023-02-04T13:32:47.862Z,11.20
2023-02-04T13:35:15.913Z,11.10
2023-02-04T13:37:43.844Z,11.70
2023-02-04T13:40:12.241Z,12.70
2023-02-04T13:42:40.213Z,10.70
2023-02-04T13:45:12.359Z,14.30
2023-02-04T13:47:40.311Z,12.40
2023-02-04T13:50:08.724Z,13.30
2023-02-04T13:52:36.579Z,13.30
2023-02-04T13:55:04.730Z,15.80
2023-02-04T13:57:33.252Z,12.60
2023-02-04T14:00:01.089Z,13.80
2023-02-04T14:02:29.078Z,12.80
2023-02-04T14:04:57.824Z,11.50
2023-02-04T14:07:25.883Z,16.20
2023-02-04T14:09:54.301Z,12.30
2023-02-04T14:12:22.216Z,11.20
2023-02-04T14:14:50.188Z,12.70
2023-02-04T14:17:18.082Z,13.50
2023-02-04T14:19:46.878Z,13.00
2023-02-04T14:22:14.973Z,13.50
2023-02-04T14:24:42.978Z,14.80
2023-02-04T14:27:11.148Z,17.60
2023-02-04T14:29:39.058Z,20.50
2023-02-04T14:32:07.104Z,19.20
2023-02-04T14:34:34.948Z,15.90
2023-02-04T14:37:03.147Z,14.60
2023-02-04T14:39:31.006Z,20.00
2023-02-04T14:41:58.997Z,16.60
2023-02-04T14:44:26.897Z,15.90
2023-02-04T14:46:54.804Z,27.20
2023-02-04T14:49:22.731Z,21.50
2023-02-04T14:51:51.188Z,17.30
2023-02-04T14:54:19.075Z,25.30
2023-02-04T14:56:47.919Z,22.10
2023-02-04T14:59:15.977Z,18.00
2023-02-04T15:01:46.254Z,19.10
2023-02-04T15:04:14.668Z,16.90
2023-02-04T15:06:42.588Z,17.80
2023-02-04T15:09:10.399Z,21.30
2023-02-04T15:11:38.475Z,18.10
2023-02-04T15:14:06.432Z,19.80
2023-02-04T15:16:34.472Z,20.60
2023-02-04T15:19:02.389Z,19.80
2023-02-04T15:21:30.392Z,18.40
2023-02-04T15:23:58.433Z,19.00
2023-02-04T15:26:26.490Z,21.90
2023-02-04T15:28:55.727Z,21.40
2023-02-04T15:31:25.179Z,18.00
2023-02-04T15:33:54.090Z,19.50
2023-02-04T15:36:22.021Z,15.30
2023-02-04T15:38:49.860Z,20.00
2023-02-04T15:41:17.915Z,19.00
2023-02-04T15:43:45.848Z,15.60
2023-02-04T15:46:13.768Z,14.00
2023-02-04T15:48:41.803Z,16.20
2023-02-04T15:51:09.947Z,17.20
2023-02-04T15:53:38.100Z,16.90
2023-02-04T15:56:06.541Z,14.30
2023-02-04T15:58:34.687Z,15.20
2023-02-04T16:01:02.932Z,13.00
2023-02-04T16:03:30.910Z,16.40
2023-02-04T16:05:58.986Z,15.90
2023-02-04T16:08:26.868Z,14.30
2023-02-04T16:10:55.736Z,17.30
2023-02-04T16:13:23.840Z,15.40
2023-02-04T16:15:51.731Z,19.50
2023-02-04T16:18:19.778Z,16.60
2023-02-04T16:20:47.799Z,15.60
2023-02-04T16:23:15.685Z,17.30
2023-02-04T16:25:43.562Z,16.40
2023-02-04T16:28:11.584Z,15.70
2023-02-04T16:30:39.765Z,17.70
2023-02-04T16:33:09.102Z,18.10
2023-02-04T16:35:57.923Z,16.70
2023-02-04T16:38:26.219Z,19.40
2023-02-04T16:40:54.215Z,20.40
2023-02-04T16:43:24.248Z,16.60
2023-02-04T16:45:52.315Z,16.00
2023-02-04T16:48:20.391Z,17.40
2023-02-04T16:50:48.223Z,16.50
2023-02-04T16:53:16.327Z,18.90
2023-02-04T16:55:46.401Z,21.50
2023-02-04T16:58:14.770Z,16.70
2023-02-04T17:00:44.147Z,19.90
2023-02-04T17:03:13.177Z,16.40
2023-02-04T17:05:41.807Z,18.80
2023-02-04T17:08:11.603Z,17.90
2023-02-04T17:11:00.984Z,16.10
2023-02-04T17:13:28.959Z,20.70
2023-02-04T17:16:00.854Z,19.00
2023-02-04T17:18:33.046Z,19.00
2023-02-04T17:21:01.009Z,19.40
2023-02-04T17:23:29.064Z,15.20
2023-02-04T17:25:57.003Z,19.20
2023-02-04T17:28:29.959Z,16.00
2023-02-04T17:30:58.319Z,13.70
2023-02-04T17:33:26.655Z,15.90
2023-02-04T17:35:54.535Z,13.30
2023-02-04T17:38:22.485Z,17.00
2023-02-04T17:40:50.390Z,13.60
2023-02-04T17:43:18.479Z,16.80
2023-02-04T17:45:46.586Z,14.20
2023-02-04T17:48:15.347Z,13.00
2023-02-04T17:50:43.650Z,14.70
2023-02-04T17:53:12.154Z,12.70
2023-02-04T17:55:40.110Z,12.30
2023-02-04T17:58:36.375Z,15.40
2023-02-04T18:01:11.713Z,15.70
2023-02-04T18:03:42.801Z,12.60
2023-02-04T18:06:23.895Z,13.00
2023-02-04T18:08:53.022Z,13.20
2023-02-04T18:11:27.274Z,12.30
2023-02-04T18:14:12.720Z,12.40
2023-02-04T18:16:41.622Z,11.40
2023-02-04T18:19:28.377Z,12.90
2023-02-04T18:21:58.790Z,17.40
2023-02-04T18:24:34.031Z,11.40
2023-02-04T18:27:13.253Z,13.80
2023-02-04T18:29:47.591Z,10.90
2023-02-04T18:32:25.834Z,16.30
2023-02-04T18:34:55.936Z,13.10
2023-02-04T18:37:31.979Z,11.40
2023-02-04T18:40:08.952Z,11.90
2023-02-04T18:42:39.864Z,11.60
2023-02-04T18:45:20.137Z,12.10
2023-02-04T18:47:48.098Z,14.70
2023-02-04T18:50:26.544Z,14.60
2023-02-04T18:52:54.540Z,12.10
2023-02-04T18:55:34.860Z,10.20
2023-02-04T18:58:28.329Z,11.30
2023-02-04T19:00:59.763Z,12.60
2023-02-04T19:03:42.170Z,11.70
2023-02-04T19:06:30.343Z,9.70
2023-02-04T19:09:10.143Z,11.70
2023-02-04T19:12:08.360Z,9.70
2023-02-04T19:14:42.745Z,12.20
2023-02-04T19:17:14.273Z,10.90
2023-02-04T19:20:00.394Z,9.40
2023-02-04T19:22:37.426Z,10.30
2023-02-04T19:25:35.527Z,10.70
2023-02-04T19:28:33.927Z,11.40
2023-02-04T19:31:04.635Z,11.90
2023-02-04T19:33:38.009Z,10.40
2023-02-04T19:36:22.173Z,11.80
2023-02-04T19:39:00.859Z,11.40
2023-02-04T19:41:53.025Z,10.40
2023-02-04T19:44:42.496Z,11.30
2023-02-04T19:47:26.640Z,10.80
2023-02-04T19:52:36.423Z,10.90
2023-02-04T19:55:28.383Z,12.10
2023-02-04T19:58:09.629Z,11.60
2023-02-04T20:00:44.724Z,11.70
2023-02-04T20:03:27.777Z,9.00
2023-02-04T20:05:59.666Z,11.30
2023-02-04T20:08:41.408Z,10.10
2023-02-04T20:11:21.343Z,9.80
2023-02-04T20:13:55.415Z,10.50
2023-02-04T20:16:39.558Z,10.40
2023-02-04T20:19:31.731Z,9.00
2023-02-04T20:22:18.591Z,10.80
2023-02-04T20:24:49.911Z,9.60
2023-02-04T20:27:41.245Z,9.80
2023-02-04T20:30:11.699Z,9.20
2023-02-04T20:32:43.008Z,12.70
2023-02-04T20:35:13.840Z,8.80
2023-02-04T20:37:42.696Z,10.00
2023-02-04T20:40:21.251Z,11.40
2023-02-04T20:42:52.994Z,9.60
2023-02-04T20:45:26.250Z,9.30
2023-02-04T20:47:59.142Z,9.80
2023-02-04T20:50:38.322Z,9.50
2023-02-04T20:53:42.016Z,12.40
2023-02-04T20:56:22.623Z,9.60
2023-02-04T20:58:54.181Z,10.70
2023-02-04T21:01:44.050Z,10.10
2023-02-04T21:04:18.185Z,8.80
2023-02-04T21:06:46.838Z,10.10
2023-02-04T21:09:26.741Z,9.00
2023-02-04T21:11:56.432Z,11.60
2023-02-04T21:14:26.230Z,11.40
2023-02-04T21:16:55.270Z,7.30
2023-02-04T21:19:25.077Z,12.30
2023-02-04T21:21:53.038Z,8.70
2023-02-04T21:24:20.925Z,10.70
2023-02-04T21:26:48.890Z,7.70
2023-02-04T21:29:17.197Z,7.20
2023-02-04T21:31:46.594Z,7.90
2023-02-04T21:34:15.824Z,12.90
2023-02-04T21:36:43.745Z,9.30
2023-02-04T21:39:11.788Z,8.10
2023-02-04T21:41:39.708Z,8.20
2023-02-04T21:44:08.308Z,10.00
2023-02-04T21:46:36.317Z,10.40
2023-02-04T21:49:05.338Z,8.70
2023-02-04T21:51:33.363Z,8.70
2023-02-04T21:54:04.495Z,7.70
2023-02-04T21:56:32.467Z,6.70
2023-02-04T21:59:00.427Z,7.00
2023-02-04T22:01:28.394Z,9.30
2023-02-04T22:03:56.502Z,7.10
2023-02-04T22:06:24.424Z,7.40
2023-02-04T22:08:52.255Z,8.60
2023-02-04T22:11:20.222Z,9.80
2023-02-04T22:14:06.379Z,7.60
2023-02-04T22:16:34.360Z,8.90
2023-02-04T22:19:02.400Z,10.30
2023-02-04T22:21:30.464Z,10.10
2023-02-04T22:23:58.411Z,7.90
2023-02-04T22:26:26.392Z,10.30
2023-02-04T22:28:54.501Z,9.80
2023-02-04T22:31:22.887Z,9.60
2023-02-04T22:33:50.842Z,9.90
2023-02-04T22:36:18.741Z,8.40
2023-02-04T22:38:46.708Z,8.00
2023-02-04T22:41:14.623Z,8.40
2023-02-04T22:43:42.634Z,8.40
2023-02-04T22:46:10.917Z,9.70
2023-02-04T22:48:38.865Z,9.90
2023-02-04T22:51:06.802Z,12.90
2023-02-04T22:53:34.676Z,8.00
2023-02-04T22:56:02.560Z,7.70
2023-02-04T22:58:31.543Z,12.20
2023-02-04T23:00:59.450Z,9.20
2023-02-04T23:03:27.727Z,8.70
2023-02-04T23:05:55.701Z,12.00
2023-02-04T23:08:23.904Z,9.70
2023-02-04T23:10:52.323Z,9.90
2023-02-04T23:13:20.220Z,8.80
2023-02-04T23:15:48.102Z,7.90
2023-02-04T23:18:15.954Z,10.30
2023-02-04T23:20:44.340Z,10.10
2023-02-04T23:23:17.618Z,10.60
2023-02-04T23:25:49.239Z,12.80
2023-02-04T23:28:17.335Z,8.20
2023-02-04T23:30:45.400Z,10.40
2023-02-04T23:33:13.271Z,10.60
2023-02-04T23:35:41.321Z,10.60
2023-02-04T23:38:09.241Z,8.80
2023-02-04T23:40:37.132Z,9.20
2023-02-04T23:43:05.312Z,8.60
2023-02-04T23:45:33.617Z,11.00
2023-02-04T23:48:01.843Z,10.30
2023-02-04T23:50:29.873Z,15.60
2023-02-04T23:52:57.811Z,9.20
2023-02-04T23:55:25.848Z,8.00
2023-02-04T23:57:53.729Z,8.50
